sensor_id;sensor_type;location;lat;lon;timestamp;P1;durP1;ratioP1;P2;durP2;ratioP2
31450;SDS011;18070;52.474;13.304;2024-02-26T00:01:26;16.00;;;8.40;;
31450;SDS011;18070;52.474;13.304;2024-02-26T00:03:52;14.65;;;8.07;;
31450;SDS011;18070;52.474;13.304;2024-02-26T00:06:19;18.92;;;8.38;;
31450;SDS011;18070;52.474;13.304;2024-02-26T00:08:45;16.33;;;8.48;;
31450;SDS011;18070;52.474;13.304;2024-02-26T00:11:11;17.00;;;8.90;;
31450;SDS011;18070;52.474;13.304;2024-02-26T00:13:37;14.07;;;7.90;;
31450;SDS011;18070;52.474;13.304;2024-02-26T00:16:06;17.05;;;9.07;;
31450;SDS011;18070;52.474;13.304;2024-02-26T00:18:32;19.95;;;9.65;;
31450;SDS011;18070;52.474;13.304;2024-02-26T00:20:58;19.55;;;9.57;;
31450;SDS011;18070;52.474;13.304;2024-02-26T00:23:25;15.40;;;9.52;;
31450;SDS011;18070;52.474;13.304;2024-02-26T00:25:52;16.92;;;10.23;;
31450;SDS011;18070;52.474;13.304;2024-02-26T00:28:18;21.67;;;10.05;;
31450;SDS011;18070;52.474;13.304;2024-02-26T00:30:47;16.30;;;9.02;;
31450;SDS011;18070;52.474;13.304;2024-02-26T00:33:16;19.38;;;9.07;;
31450;SDS011;18070;52.474;13.304;2024-02-26T00:35:42;15.32;;;8.13;;
31450;SDS011;18070;52.474;13.304;2024-02-26T00:38:09;17.92;;;9.02;;
31450;SDS011;18070;52.474;13.304;2024-02-26T00:40:35;23.17;;;10.00;;
31450;SDS011;18070;52.474;13.304;2024-02-26T00:43:01;21.27;;;10.18;;
31450;SDS011;18070;52.474;13.304;2024-02-26T00:45:27;17.67;;;10.20;;
31450;SDS011;18070;52.474;13.304;2024-02-26T00:47:53;17.33;;;9.98;;
31450;SDS011;18070;52.474;13.304;2024-02-26T00:50:19;19.88;;;9.25;;
31450;SDS011;18070;52.474;13.304;2024-02-26T00:52:45;15.10;;;8.75;;
31450;SDS011;18070;52.474;13.304;2024-02-26T00:55:11;13.90;;;8.45;;
31450;SDS011;18070;52.474;13.304;2024-02-26T00:57:37;18.98;;;10.30;;
31450;SDS011;18070;52.474;13.304;2024-02-26T01:00:03;19.45;;;9.68;;
31450;SDS011;18070;52.474;13.304;2024-02-26T01:02:29;21.67;;;10.68;;
31450;SDS011;18070;52.474;13.304;2024-02-26T01:04:55;17.17;;;10.02;;
31450;SDS011;18070;52.474;13.304;2024-02-26T01:07:21;16.92;;;9.20;;
31450;SDS011;18070;52.474;13.304;2024-02-26T01:09:47;15.40;;;9.48;;
31450;SDS011;18070;52.474;13.304;2024-02-26T01:12:13;21.75;;;9.80;;
31450;SDS011;18070;52.474;13.304;2024-02-26T01:14:40;13.80;;;8.48;;
31450;SDS011;18070;52.474;13.304;2024-02-26T01:17:06;15.88;;;9.38;;
31450;SDS011;18070;52.474;13.304;2024-02-26T01:19:32;14.25;;;8.80;;
31450;SDS011;18070;52.474;13.304;2024-02-26T01:21:58;17.05;;;9.57;;
31450;SDS011;18070;52.474;13.304;2024-02-26T01:24:24;18.05;;;10.10;;
31450;SDS011;18070;52.474;13.304;2024-02-26T01:26:50;17.27;;;9.65;;
31450;SDS011;18070;52.474;13.304;2024-02-26T01:29:16;17.90;;;9.68;;
31450;SDS011;18070;52.474;13.304;2024-02-26T01:31:42;19.15;;;9.88;;
31450;SDS011;18070;52.474;13.304;2024-02-26T01:34:08;20.17;;;9.98;;
31450;SDS011;18070;52.474;13.304;2024-02-26T01:36:34;15.85;;;9.02;;
31450;SDS011;18070;52.474;13.304;2024-02-26T01:39:00;18.67;;;9.98;;
31450;SDS011;18070;52.474;13.304;2024-02-26T01:41:28;18.17;;;10.32;;
31450;SDS011;18070;52.474;13.304;2024-02-26T01:43:54;17.70;;;10.52;;
31450;SDS011;18070;52.474;13.304;2024-02-26T01:46:20;19.83;;;10.20;;
31450;SDS011;18070;52.474;13.304;2024-02-26T01:48:46;17.20;;;11.20;;
31450;SDS011;18070;52.474;13.304;2024-02-26T01:51:14;20.70;;;9.80;;
31450;SDS011;18070;52.474;13.304;2024-02-26T01:53:42;21.05;;;10.02;;
31450;SDS011;18070;52.474;13.304;2024-02-26T01:56:08;22.63;;;10.48;;
31450;SDS011;18070;52.474;13.304;2024-02-26T01:58:34;19.70;;;10.88;;
31450;SDS011;18070;52.474;13.304;2024-02-26T02:01:01;20.40;;;10.73;;
31450;SDS011;18070;52.474;13.304;2024-02-26T02:03:28;19.15;;;10.73;;
31450;SDS011;18070;52.474;13.304;2024-02-26T02:05:54;17.95;;;10.80;;
31450;SDS011;18070;52.474;13.304;2024-02-26T02:08:20;20.90;;;10.75;;
31450;SDS011;18070;52.474;13.304;2024-02-26T02:10:47;17.67;;;10.15;;
31450;SDS011;18070;52.474;13.304;2024-02-26T02:13:14;19.23;;;10.20;;
31450;SDS011;18070;52.474;13.304;2024-02-26T02:15:40;19.17;;;10.55;;
31450;SDS011;18070;52.474;13.304;2024-02-26T02:18:06;16.23;;;10.05;;
31450;SDS011;18070;52.474;13.304;2024-02-26T02:20:32;22.10;;;12.60;;
31450;SDS011;18070;52.474;13.304;2024-02-26T02:23:02;19.15;;;10.68;;
31450;SDS011;18070;52.474;13.304;2024-02-26T02:25:28;17.98;;;11.25;;
31450;SDS011;18070;52.474;13.304;2024-02-26T02:27:54;21.08;;;11.10;;
31450;SDS011;18070;52.474;13.304;2024-02-26T02:30:21;17.90;;;10.27;;
31450;SDS011;18070;52.474;13.304;2024-02-26T02:32:47;18.05;;;10.48;;
31450;SDS011;18070;52.474;13.304;2024-02-26T02:35:13;16.60;;;10.77;;
31450;SDS011;18070;52.474;13.304;2024-02-26T02:37:39;22.10;;;10.55;;
31450;SDS011;18070;52.474;13.304;2024-02-26T02:40:05;19.25;;;11.13;;
31450;SDS011;18070;52.474;13.304;2024-02-26T02:42:31;18.98;;;10.38;;
31450;SDS011;18070;52.474;13.304;2024-02-26T02:44:57;18.70;;;11.27;;
31450;SDS011;18070;52.474;13.304;2024-02-26T02:47:23;22.30;;;12.15;;
31450;SDS011;18070;52.474;13.304;2024-02-26T02:49:49;17.38;;;10.98;;
31450;SDS011;18070;52.474;13.304;2024-02-26T02:52:15;19.88;;;11.40;;
31450;SDS011;18070;52.474;13.304;2024-02-26T02:54:41;18.58;;;10.48;;
31450;SDS011;18070;52.474;13.304;2024-02-26T02:57:08;17.60;;;10.25;;
31450;SDS011;18070;52.474;13.304;2024-02-26T02:59:34;16.20;;;10.20;;
31450;SDS011;18070;52.474;13.304;2024-02-26T03:02:00;20.70;;;11.00;;
31450;SDS011;18070;52.474;13.304;2024-02-26T03:04:26;20.25;;;11.10;;
31450;SDS011;18070;52.474;13.304;2024-02-26T03:06:54;23.80;;;9.68;;
31450;SDS011;18070;52.474;13.304;2024-02-26T03:09:20;18.77;;;10.00;;
31450;SDS011;18070;52.474;13.304;2024-02-26T03:11:46;17.70;;;9.82;;
31450;SDS011;18070;52.474;13.304;2024-02-26T03:14:12;13.50;;;9.63;;
31450;SDS011;18070;52.474;13.304;2024-02-26T03:16:38;16.13;;;8.88;;
31450;SDS011;18070;52.474;13.304;2024-02-26T03:19:04;16.80;;;8.88;;
31450;SDS011;18070;52.474;13.304;2024-02-26T03:21:30;13.90;;;9.20;;
31450;SDS011;18070;52.474;13.304;2024-02-26T03:23:56;12.05;;;8.23;;
31450;SDS011;18070;52.474;13.304;2024-02-26T03:26:22;19.08;;;9.50;;
31450;SDS011;18070;52.474;13.304;2024-02-26T03:28:48;15.38;;;8.48;;
31450;SDS011;18070;52.474;13.304;2024-02-26T03:31:14;10.40;;;7.93;;
31450;SDS011;18070;52.474;13.304;2024-02-26T03:33:40;12.95;;;7.97;;
31450;SDS011;18070;52.474;13.304;2024-02-26T03:36:06;15.55;;;8.52;;
31450;SDS011;18070;52.474;13.304;2024-02-26T03:38:32;11.45;;;8.43;;
31450;SDS011;18070;52.474;13.304;2024-02-26T03:40:58;15.45;;;8.48;;
31450;SDS011;18070;52.474;13.304;2024-02-26T03:43:24;13.20;;;8.93;;
31450;SDS011;18070;52.474;13.304;2024-02-26T03:45:51;11.80;;;7.82;;
31450;SDS011;18070;52.474;13.304;2024-02-26T03:48:16;11.77;;;8.70;;
31450;SDS011;18070;52.474;13.304;2024-02-26T03:50:42;14.82;;;8.73;;
31450;SDS011;18070;52.474;13.304;2024-02-26T03:53:08;11.85;;;8.68;;
31450;SDS011;18070;52.474;13.304;2024-02-26T03:55:37;15.02;;;8.50;;
31450;SDS011;18070;52.474;13.304;2024-02-26T03:58:03;16.20;;;9.27;;
31450;SDS011;18070;52.474;13.304;2024-02-26T04:00:29;15.07;;;8.52;;
31450;SDS011;18070;52.474;13.304;2024-02-26T04:02:55;14.70;;;9.15;;
31450;SDS011;18070;52.474;13.304;2024-02-26T04:05:21;14.35;;;8.10;;
31450;SDS011;18070;52.474;13.304;2024-02-26T04:07:47;11.52;;;7.90;;
31450;SDS011;18070;52.474;13.304;2024-02-26T04:10:13;14.40;;;8.75;;
31450;SDS011;18070;52.474;13.304;2024-02-26T04:12:40;15.15;;;8.90;;
31450;SDS011;18070;52.474;13.304;2024-02-26T04:15:09;15.43;;;8.80;;
31450;SDS011;18070;52.474;13.304;2024-02-26T04:17:35;13.93;;;9.70;;
31450;SDS011;18070;52.474;13.304;2024-02-26T04:20:02;14.07;;;9.85;;
31450;SDS011;18070;52.474;13.304;2024-02-26T04:22:28;18.38;;;10.23;;
31450;SDS011;18070;52.474;13.304;2024-02-26T04:24:54;14.93;;;9.48;;
31450;SDS011;18070;52.474;13.304;2024-02-26T04:27:20;13.65;;;9.10;;
31450;SDS011;18070;52.474;13.304;2024-02-26T04:29:46;12.60;;;8.80;;
31450;SDS011;18070;52.474;13.304;2024-02-26T04:32:12;16.02;;;8.98;;
31450;SDS011;18070;52.474;13.304;2024-02-26T04:34:38;12.38;;;8.18;;
31450;SDS011;18070;52.474;13.304;2024-02-26T04:37:04;13.65;;;9.18;;
31450;SDS011;18070;52.474;13.304;2024-02-26T04:39:30;10.93;;;8.57;;
31450;SDS011;18070;52.474;13.304;2024-02-26T04:41:56;13.55;;;9.40;;
31450;SDS011;18070;52.474;13.304;2024-02-26T04:44:22;15.82;;;8.52;;
31450;SDS011;18070;52.474;13.304;2024-02-26T04:46:48;17.15;;;9.07;;
31450;SDS011;18070;52.474;13.304;2024-02-26T04:49:14;12.68;;;8.77;;
31450;SDS011;18070;52.474;13.304;2024-02-26T04:51:40;15.70;;;8.55;;
31450;SDS011;18070;52.474;13.304;2024-02-26T04:54:06;15.35;;;9.18;;
31450;SDS011;18070;52.474;13.304;2024-02-26T04:56:32;13.75;;;8.45;;
31450;SDS011;18070;52.474;13.304;2024-02-26T04:58:58;15.63;;;9.55;;
31450;SDS011;18070;52.474;13.304;2024-02-26T05:01:24;16.55;;;9.38;;
31450;SDS011;18070;52.474;13.304;2024-02-26T05:03:50;15.95;;;9.50;;
31450;SDS011;18070;52.474;13.304;2024-02-26T05:06:16;15.82;;;9.88;;
31450;SDS011;18070;52.474;13.304;2024-02-26T05:08:42;13.27;;;9.23;;
31450;SDS011;18070;52.474;13.304;2024-02-26T05:11:09;16.08;;;9.77;;
31450;SDS011;18070;52.474;13.304;2024-02-26T05:13:35;13.77;;;9.40;;
31450;SDS011;18070;52.474;13.304;2024-02-26T05:16:00;15.35;;;9.20;;
31450;SDS011;18070;52.474;13.304;2024-02-26T05:18:27;17.17;;;9.75;;
31450;SDS011;18070;52.474;13.304;2024-02-26T05:20:53;20.85;;;10.38;;
31450;SDS011;18070;52.474;13.304;2024-02-26T05:23:19;20.20;;;10.05;;
31450;SDS011;18070;52.474;13.304;2024-02-26T05:25:45;15.70;;;9.85;;
31450;SDS011;18070;52.474;13.304;2024-02-26T05:28:13;16.33;;;9.95;;
31450;SDS011;18070;52.474;13.304;2024-02-26T05:30:40;21.30;;;11.25;;
31450;SDS011;18070;52.474;13.304;2024-02-26T05:33:06;28.38;;;12.10;;
31450;SDS011;18070;52.474;13.304;2024-02-26T05:35:32;428.15;;;46.97;;
31450;SDS011;18070;52.474;13.304;2024-02-26T05:37:58;273.02;;;29.90;;
31450;SDS011;18070;52.474;13.304;2024-02-26T05:40:24;197.85;;;24.17;;
31450;SDS011;18070;52.474;13.304;2024-02-26T05:42:50;24.13;;;12.88;;
31450;SDS011;18070;52.474;13.304;2024-02-26T05:45:16;26.65;;;13.00;;
31450;SDS011;18070;52.474;13.304;2024-02-26T05:47:43;20.10;;;12.85;;
31450;SDS011;18070;52.474;13.304;2024-02-26T05:50:09;43.15;;;13.43;;
31450;SDS011;18070;52.474;13.304;2024-02-26T05:52:36;50.78;;;12.60;;
31450;SDS011;18070;52.474;13.304;2024-02-26T05:55:03;40.33;;;12.50;;
31450;SDS011;18070;52.474;13.304;2024-02-26T05:57:29;36.58;;;11.85;;
31450;SDS011;18070;52.474;13.304;2024-02-26T05:59:55;29.05;;;12.57;;
31450;SDS011;18070;52.474;13.304;2024-02-26T06:02:21;42.17;;;12.07;;
31450;SDS011;18070;52.474;13.304;2024-02-26T06:04:47;23.38;;;12.38;;
31450;SDS011;18070;52.474;13.304;2024-02-26T06:07:13;22.45;;;12.63;;
31450;SDS011;18070;52.474;13.304;2024-02-26T06:09:39;27.60;;;13.93;;
31450;SDS011;18070;52.474;13.304;2024-02-26T06:12:05;29.35;;;14.32;;
31450;SDS011;18070;52.474;13.304;2024-02-26T06:14:31;31.30;;;15.05;;
31450;SDS011;18070;52.474;13.304;2024-02-26T06:16:57;27.90;;;13.93;;
31450;SDS011;18070;52.474;13.304;2024-02-26T06:19:23;27.73;;;15.63;;
31450;SDS011;18070;52.474;13.304;2024-02-26T06:21:49;35.35;;;15.18;;
31450;SDS011;18070;52.474;13.304;2024-02-26T06:24:16;26.60;;;15.13;;
31450;SDS011;18070;52.474;13.304;2024-02-26T06:26:42;24.75;;;15.40;;
31450;SDS011;18070;52.474;13.304;2024-02-26T06:29:08;29.05;;;15.45;;
31450;SDS011;18070;52.474;13.304;2024-02-26T06:31:33;27.52;;;14.98;;
31450;SDS011;18070;52.474;13.304;2024-02-26T06:33:59;28.20;;;15.10;;
31450;SDS011;18070;52.474;13.304;2024-02-26T06:36:25;25.90;;;15.82;;
31450;SDS011;18070;52.474;13.304;2024-02-26T06:38:51;27.55;;;15.35;;
31450;SDS011;18070;52.474;13.304;2024-02-26T06:41:19;29.67;;;16.20;;
31450;SDS011;18070;52.474;13.304;2024-02-26T06:43:45;36.85;;;18.55;;
31450;SDS011;18070;52.474;13.304;2024-02-26T06:46:11;29.92;;;16.63;;
31450;SDS011;18070;52.474;13.304;2024-02-26T06:48:37;29.33;;;17.50;;
31450;SDS011;18070;52.474;13.304;2024-02-26T06:51:03;29.58;;;17.42;;
31450;SDS011;18070;52.474;13.304;2024-02-26T06:53:29;27.65;;;16.70;;
31450;SDS011;18070;52.474;13.304;2024-02-26T06:55:55;25.25;;;15.68;;
31450;SDS011;18070;52.474;13.304;2024-02-26T06:58:21;27.58;;;15.73;;
31450;SDS011;18070;52.474;13.304;2024-02-26T07:00:47;28.45;;;17.45;;
31450;SDS011;18070;52.474;13.304;2024-02-26T07:03:13;26.23;;;16.05;;
31450;SDS011;18070;52.474;13.304;2024-02-26T07:05:39;28.10;;;15.88;;
31450;SDS011;18070;52.474;13.304;2024-02-26T07:08:05;22.77;;;16.13;;
31450;SDS011;18070;52.474;13.304;2024-02-26T07:10:31;26.48;;;16.80;;
31450;SDS011;18070;52.474;13.304;2024-02-26T07:12:57;33.47;;;16.45;;
31450;SDS011;18070;52.474;13.304;2024-02-26T07:15:23;26.38;;;16.60;;
31450;SDS011;18070;52.474;13.304;2024-02-26T07:17:49;30.70;;;17.02;;
31450;SDS011;18070;52.474;13.304;2024-02-26T07:20:15;27.17;;;16.33;;
31450;SDS011;18070;52.474;13.304;2024-02-26T07:22:43;27.77;;;16.50;;
31450;SDS011;18070;52.474;13.304;2024-02-26T07:25:09;32.55;;;17.67;;
31450;SDS011;18070;52.474;13.304;2024-02-26T07:27:38;28.30;;;17.25;;
31450;SDS011;18070;52.474;13.304;2024-02-26T07:30:05;26.70;;;17.27;;
31450;SDS011;18070;52.474;13.304;2024-02-26T07:32:31;29.10;;;18.02;;
31450;SDS011;18070;52.474;13.304;2024-02-26T07:34:57;24.95;;;16.80;;
31450;SDS011;18070;52.474;13.304;2024-02-26T07:37:23;33.38;;;18.58;;
31450;SDS011;18070;52.474;13.304;2024-02-26T07:39:49;33.92;;;19.92;;
31450;SDS011;18070;52.474;13.304;2024-02-26T07:42:15;24.83;;;14.02;;
31450;SDS011;18070;52.474;13.304;2024-02-26T07:44:41;29.48;;;14.23;;
31450;SDS011;18070;52.474;13.304;2024-02-26T07:47:09;31.65;;;17.13;;
31450;SDS011;18070;52.474;13.304;2024-02-26T07:49:35;29.83;;;17.02;;
31450;SDS011;18070;52.474;13.304;2024-02-26T07:52:01;29.52;;;15.82;;
31450;SDS011;18070;52.474;13.304;2024-02-26T07:54:27;30.25;;;18.30;;
31450;SDS011;18070;52.474;13.304;2024-02-26T07:56:53;29.63;;;19.10;;
31450;SDS011;18070;52.474;13.304;2024-02-26T07:59:19;28.85;;;17.58;;
31450;SDS011;18070;52.474;13.304;2024-02-26T08:01:49;30.20;;;17.52;;
31450;SDS011;18070;52.474;13.304;2024-02-26T08:04:15;26.25;;;17.35;;
31450;SDS011;18070;52.474;13.304;2024-02-26T08:06:41;28.05;;;17.17;;
31450;SDS011;18070;52.474;13.304;2024-02-26T08:09:08;28.30;;;16.98;;
31450;SDS011;18070;52.474;13.304;2024-02-26T08:11:34;26.88;;;17.13;;
31450;SDS011;18070;52.474;13.304;2024-02-26T08:14:00;33.30;;;18.52;;
31450;SDS011;18070;52.474;13.304;2024-02-26T08:16:26;33.22;;;18.65;;
31450;SDS011;18070;52.474;13.304;2024-02-26T08:18:52;33.05;;;18.25;;
31450;SDS011;18070;52.474;13.304;2024-02-26T08:21:18;26.63;;;17.85;;
31450;SDS011;18070;52.474;13.304;2024-02-26T08:23:44;27.90;;;18.27;;
31450;SDS011;18070;52.474;13.304;2024-02-26T08:26:10;30.63;;;18.80;;
31450;SDS011;18070;52.474;13.304;2024-02-26T08:28:37;35.50;;;17.67;;
31450;SDS011;18070;52.474;13.304;2024-02-26T08:31:03;33.05;;;18.85;;
31450;SDS011;18070;52.474;13.304;2024-02-26T08:33:29;29.10;;;17.75;;
31450;SDS011;18070;52.474;13.304;2024-02-26T08:35:56;30.75;;;17.35;;
31450;SDS011;18070;52.474;13.304;2024-02-26T08:38:23;28.08;;;16.90;;
31450;SDS011;18070;52.474;13.304;2024-02-26T08:40:49;29.08;;;16.58;;
31450;SDS011;18070;52.474;13.304;2024-02-26T08:43:15;27.60;;;16.35;;
31450;SDS011;18070;52.474;13.304;2024-02-26T08:45:41;28.25;;;16.63;;
31450;SDS011;18070;52.474;13.304;2024-02-26T08:48:07;25.10;;;16.67;;
31450;SDS011;18070;52.474;13.304;2024-02-26T08:50:33;27.50;;;16.27;;
31450;SDS011;18070;52.474;13.304;2024-02-26T08:52:59;25.42;;;15.60;;
31450;SDS011;18070;52.474;13.304;2024-02-26T08:55:26;25.67;;;15.25;;
31450;SDS011;18070;52.474;13.304;2024-02-26T08:57:52;27.85;;;16.25;;
31450;SDS011;18070;52.474;13.304;2024-02-26T09:00:18;23.88;;;15.18;;
31450;SDS011;18070;52.474;13.304;2024-02-26T09:02:47;22.00;;;14.75;;
31450;SDS011;18070;52.474;13.304;2024-02-26T09:05:14;25.02;;;14.77;;
31450;SDS011;18070;52.474;13.304;2024-02-26T09:07:40;23.92;;;15.45;;
31450;SDS011;18070;52.474;13.304;2024-02-26T09:10:06;24.08;;;15.52;;
31450;SDS011;18070;52.474;13.304;2024-02-26T09:12:36;26.52;;;16.70;;
31450;SDS011;18070;52.474;13.304;2024-02-26T09:15:02;21.35;;;14.18;;
31450;SDS011;18070;52.474;13.304;2024-02-26T09:17:29;25.15;;;16.50;;
31450;SDS011;18070;52.474;13.304;2024-02-26T09:19:55;34.90;;;16.60;;
31450;SDS011;18070;52.474;13.304;2024-02-26T09:22:21;29.88;;;17.77;;
31450;SDS011;18070;52.474;13.304;2024-02-26T09:24:47;30.00;;;17.08;;
31450;SDS011;18070;52.474;13.304;2024-02-26T09:27:15;28.92;;;16.52;;
31450;SDS011;18070;52.474;13.304;2024-02-26T09:29:41;31.92;;;17.40;;
31450;SDS011;18070;52.474;13.304;2024-02-26T09:32:07;33.35;;;17.52;;
31450;SDS011;18070;52.474;13.304;2024-02-26T09:34:33;26.40;;;17.85;;
31450;SDS011;18070;52.474;13.304;2024-02-26T09:36:59;30.90;;;15.82;;
31450;SDS011;18070;52.474;13.304;2024-02-26T09:39:26;28.88;;;16.17;;
31450;SDS011;18070;52.474;13.304;2024-02-26T09:41:53;27.27;;;15.80;;
31450;SDS011;18070;52.474;13.304;2024-02-26T09:44:19;27.55;;;14.90;;
31450;SDS011;18070;52.474;13.304;2024-02-26T09:46:48;23.23;;;15.18;;
31450;SDS011;18070;52.474;13.304;2024-02-26T09:49:15;23.90;;;15.50;;
31450;SDS011;18070;52.474;13.304;2024-02-26T09:51:41;22.08;;;13.55;;
31450;SDS011;18070;52.474;13.304;2024-02-26T09:54:09;24.90;;;14.93;;
31450;SDS011;18070;52.474;13.304;2024-02-26T09:56:36;22.48;;;14.57;;
31450;SDS011;18070;52.474;13.304;2024-02-26T09:59:06;27.52;;;14.48;;
31450;SDS011;18070;52.474;13.304;2024-02-26T10:01:35;21.45;;;13.57;;
31450;SDS011;18070;52.474;13.304;2024-02-26T10:04:02;23.58;;;12.63;;
31450;SDS011;18070;52.474;13.304;2024-02-26T10:06:29;19.30;;;12.18;;
31450;SDS011;18070;52.474;13.304;2024-02-26T10:08:55;35.30;;;14.45;;
31450;SDS011;18070;52.474;13.304;2024-02-26T10:11:23;19.08;;;13.00;;
31450;SDS011;18070;52.474;13.304;2024-02-26T10:13:49;21.92;;;13.35;;
31450;SDS011;18070;52.474;13.304;2024-02-26T10:16:16;20.30;;;13.10;;
31450;SDS011;18070;52.474;13.304;2024-02-26T10:18:48;20.20;;;12.93;;
31450;SDS011;18070;52.474;13.304;2024-02-26T10:21:18;26.23;;;14.15;;
31450;SDS011;18070;52.474;13.304;2024-02-26T10:23:44;20.10;;;12.40;;
31450;SDS011;18070;52.474;13.304;2024-02-26T10:26:12;21.20;;;13.15;;
31450;SDS011;18070;52.474;13.304;2024-02-26T10:28:39;20.58;;;13.13;;
31450;SDS011;18070;52.474;13.304;2024-02-26T10:31:05;18.35;;;12.43;;
31450;SDS011;18070;52.474;13.304;2024-02-26T10:33:34;20.45;;;12.88;;
31450;SDS011;18070;52.474;13.304;2024-02-26T10:36:01;20.05;;;12.23;;
31450;SDS011;18070;52.474;13.304;2024-02-26T10:38:27;19.67;;;11.98;;
31450;SDS011;18070;52.474;13.304;2024-02-26T10:40:53;20.00;;;11.60;;
31450;SDS011;18070;52.474;13.304;2024-02-26T10:43:20;19.20;;;11.70;;
31450;SDS011;18070;52.474;13.304;2024-02-26T10:45:46;16.55;;;11.18;;
31450;SDS011;18070;52.474;13.304;2024-02-26T10:48:13;18.40;;;11.20;;
31450;SDS011;18070;52.474;13.304;2024-02-26T10:50:40;17.10;;;10.82;;
31450;SDS011;18070;52.474;13.304;2024-02-26T10:53:07;15.00;;;10.43;;
31450;SDS011;18070;52.474;13.304;2024-02-26T10:55:36;14.23;;;10.55;;
31450;SDS011;18070;52.474;13.304;2024-02-26T10:58:02;17.05;;;10.80;;
31450;SDS011;18070;52.474;13.304;2024-02-26T11:00:29;14.60;;;9.73;;
31450;SDS011;18070;52.474;13.304;2024-02-26T11:02:56;15.98;;;10.00;;
31450;SDS011;18070;52.474;13.304;2024-02-26T11:05:26;13.85;;;10.20;;
31450;SDS011;18070;52.474;13.304;2024-02-26T11:07:53;13.27;;;8.52;;
31450;SDS011;18070;52.474;13.304;2024-02-26T11:10:20;14.15;;;9.50;;
31450;SDS011;18070;52.474;13.304;2024-02-26T11:12:47;14.48;;;9.05;;
31450;SDS011;18070;52.474;13.304;2024-02-26T11:15:13;12.70;;;9.40;;
31450;SDS011;18070;52.474;13.304;2024-02-26T11:17:39;14.43;;;10.25;;
31450;SDS011;18070;52.474;13.304;2024-02-26T11:20:09;13.60;;;9.45;;
31450;SDS011;18070;52.474;13.304;2024-02-26T11:22:36;17.52;;;10.80;;
31450;SDS011;18070;52.474;13.304;2024-02-26T11:25:02;13.63;;;10.20;;
31450;SDS011;18070;52.474;13.304;2024-02-26T11:27:29;16.20;;;9.60;;
31450;SDS011;18070;52.474;13.304;2024-02-26T11:29:57;17.00;;;11.02;;
31450;SDS011;18070;52.474;13.304;2024-02-26T11:32:27;14.23;;;9.73;;
31450;SDS011;18070;52.474;13.304;2024-02-26T11:34:56;18.23;;;10.07;;
31450;SDS011;18070;52.474;13.304;2024-02-26T11:37:22;13.43;;;9.05;;
31450;SDS011;18070;52.474;13.304;2024-02-26T11:39:49;14.57;;;9.27;;
31450;SDS011;18070;52.474;13.304;2024-02-26T11:42:17;13.15;;;8.73;;
31450;SDS011;18070;52.474;13.304;2024-02-26T11:44:43;17.52;;;9.05;;
31450;SDS011;18070;52.474;13.304;2024-02-26T11:47:12;15.55;;;9.35;;
31450;SDS011;18070;52.474;13.304;2024-02-26T11:49:39;14.30;;;9.02;;
31450;SDS011;18070;52.474;13.304;2024-02-26T11:52:06;16.50;;;9.77;;
31450;SDS011;18070;52.474;13.304;2024-02-26T11:59:46;15.48;;;9.07;;
31450;SDS011;18070;52.474;13.304;2024-02-26T12:02:23;11.02;;;8.20;;
31450;SDS011;18070;52.474;13.304;2024-02-26T12:04:58;13.52;;;7.85;;
31450;SDS011;18070;52.474;13.304;2024-02-26T12:07:24;16.52;;;10.32;;
31450;SDS011;18070;52.474;13.304;2024-02-26T12:09:51;12.68;;;8.80;;
31450;SDS011;18070;52.474;13.304;2024-02-26T12:12:17;15.43;;;9.10;;
31450;SDS011;18070;52.474;13.304;2024-02-26T12:14:51;14.15;;;9.40;;
31450;SDS011;18070;52.474;13.304;2024-02-26T12:17:21;14.50;;;10.32;;
31450;SDS011;18070;52.474;13.304;2024-02-26T12:19:47;17.52;;;9.90;;
31450;SDS011;18070;52.474;13.304;2024-02-26T12:22:13;17.65;;;10.93;;
31450;SDS011;18070;52.474;13.304;2024-02-26T12:24:40;15.00;;;9.70;;
31450;SDS011;18070;52.474;13.304;2024-02-26T12:27:06;17.83;;;10.70;;
31450;SDS011;18070;52.474;13.304;2024-02-26T12:29:32;18.35;;;11.45;;
31450;SDS011;18070;52.474;13.304;2024-02-26T12:31:59;13.07;;;10.18;;
31450;SDS011;18070;52.474;13.304;2024-02-26T12:34:25;17.55;;;11.00;;
31450;SDS011;18070;52.474;13.304;2024-02-26T12:36:51;16.25;;;10.50;;
31450;SDS011;18070;52.474;13.304;2024-02-26T12:39:18;16.55;;;10.80;;
31450;SDS011;18070;52.474;13.304;2024-02-26T12:41:45;19.60;;;10.85;;
31450;SDS011;18070;52.474;13.304;2024-02-26T12:44:17;15.40;;;11.38;;
31450;SDS011;18070;52.474;13.304;2024-02-26T12:46:44;19.17;;;11.48;;
31450;SDS011;18070;52.474;13.304;2024-02-26T12:49:14;19.08;;;10.80;;
31450;SDS011;18070;52.474;13.304;2024-02-26T12:51:42;17.83;;;12.43;;
31450;SDS011;18070;52.474;13.304;2024-02-26T12:54:08;15.55;;;10.55;;
31450;SDS011;18070;52.474;13.304;2024-02-26T12:56:34;16.33;;;10.70;;
31450;SDS011;18070;52.474;13.304;2024-02-26T12:59:01;17.25;;;12.00;;
31450;SDS011;18070;52.474;13.304;2024-02-26T13:01:28;17.95;;;12.23;;
31450;SDS011;18070;52.474;13.304;2024-02-26T13:03:55;16.85;;;11.68;;
31450;SDS011;18070;52.474;13.304;2024-02-26T13:06:21;22.83;;;12.00;;
31450;SDS011;18070;52.474;13.304;2024-02-26T13:08:48;21.55;;;11.23;;
31450;SDS011;18070;52.474;13.304;2024-02-26T13:11:14;18.80;;;10.25;;
31450;SDS011;18070;52.474;13.304;2024-02-26T13:13:40;20.88;;;10.63;;
31450;SDS011;18070;52.474;13.304;2024-02-26T13:16:09;13.10;;;9.88;;
31450;SDS011;18070;52.474;13.304;2024-02-26T13:18:35;14.10;;;8.75;;
31450;SDS011;18070;52.474;13.304;2024-02-26T13:21:11;17.15;;;9.27;;
31450;SDS011;18070;52.474;13.304;2024-02-26T13:23:40;16.45;;;8.93;;
31450;SDS011;18070;52.474;13.304;2024-02-26T13:26:07;12.45;;;8.45;;
31450;SDS011;18070;52.474;13.304;2024-02-26T13:28:34;15.23;;;8.23;;
31450;SDS011;18070;52.474;13.304;2024-02-26T13:31:00;13.15;;;8.50;;
31450;SDS011;18070;52.474;13.304;2024-02-26T13:33:28;14.80;;;8.00;;
31450;SDS011;18070;52.474;13.304;2024-02-26T13:35:55;16.20;;;8.25;;
31450;SDS011;18070;52.474;13.304;2024-02-26T13:38:21;10.77;;;7.57;;
31450;SDS011;18070;52.474;13.304;2024-02-26T13:40:48;12.65;;;7.38;;
31450;SDS011;18070;52.474;13.304;2024-02-26T13:43:14;13.27;;;7.55;;
31450;SDS011;18070;52.474;13.304;2024-02-26T13:45:40;14.55;;;6.97;;
31450;SDS011;18070;52.474;13.304;2024-02-26T13:48:06;12.48;;;7.05;;
31450;SDS011;18070;52.474;13.304;2024-02-26T13:50:32;15.68;;;6.85;;
31450;SDS011;18070;52.474;13.304;2024-02-26T13:53:07;10.90;;;6.93;;
31450;SDS011;18070;52.474;13.304;2024-02-26T13:55:33;10.60;;;6.53;;
31450;SDS011;18070;52.474;13.304;2024-02-26T13:57:59;10.35;;;5.68;;
31450;SDS011;18070;52.474;13.304;2024-02-26T14:00:29;7.28;;;5.22;;
31450;SDS011;18070;52.474;13.304;2024-02-26T14:02:57;10.65;;;5.63;;
31450;SDS011;18070;52.474;13.304;2024-02-26T14:05:23;10.27;;;6.22;;
31450;SDS011;18070;52.474;13.304;2024-02-26T14:07:49;13.60;;;5.38;;
31450;SDS011;18070;52.474;13.304;2024-02-26T14:10:15;10.23;;;5.00;;
31450;SDS011;18070;52.474;13.304;2024-02-26T14:12:41;9.48;;;4.65;;
31450;SDS011;18070;52.474;13.304;2024-02-26T14:15:07;9.60;;;5.20;;